Time;durP1;ratioP1;P1;durP2;ratioP2;P2;SDS_P1;SDS_P2;PMS_P1;PMS_P2;Temp;Humidity;BMP_temperature;BMP_pressure;BME280_temperature;BME280_humidity;BME280_pressure;Samples;Min_cycle;Max_cycle;Signal;HPM_P1;HPM_P2
2023/05/11 05:51:28;;;;;;;11.63;8.75;;;;;;;;;;10514751;28;20470;-85
2023/05/11 05:56:30;;;;;;;10.65;8.15;;;;;;;;;;10504697;28;20395;-86
2023/05/11 06:01:31;;;;;;;8.40;6.40;;;;;;;;;;10522492;22;20036;-82
2023/05/11 06:06:32;;;;;;;8.23;7.07;;;;;;;;;;10492595;28;20032;-82
2023/05/11 06:11:33;;;;;;;9.95;8.63;;;;;;;;;;10490332;28;20097;-81
2023/05/11 06:16:34;;;;;;;10.25;9.23;;;;;;;;;;10490853;28;20048;-82
2023/05/11 06:21:35;;;;;;;11.90;9.80;;;;;;;;;;10490667;28;20123;-82
2023/05/11 06:26:37;;;;;;;7.22;6.47;;;;;;;;;;10507933;28;20443;-82
2023/05/11 06:31:38;;;;;;;6.95;6.28;;;;;;;;;;10490867;28;20044;-82
2023/05/11 06:36:39;;;;;;;14.55;13.05;;;;;;;;;;10504657;28;20027;-82
2023/05/11 06:41:40;;;;;;;6.68;5.97;;;;;;;;;;10487266;28;20100;-80
2023/05/11 06:46:41;;;;;;;7.40;6.65;;;;;;;;;;10488397;28;20060;-81
2023/05/11 06:51:42;;;;;;;8.48;6.60;;;;;;;;;;10492032;28;20021;-82
2023/05/11 06:56:43;;;;;;;8.00;7.20;;;;;;;;;;10492038;28;20039;-81
2023/05/11 07:01:44;;;;;;;5.03;4.00;;;;;;;;;;10467247;28;20059;-81
2023/05/11 07:06:45;;;;;;;6.57;5.75;;;;;;;;;;10456492;28;20471;-81
2023/05/11 07:11:46;;;;;;;8.77;7.18;;;;;;;;;;10459177;28;20021;-83
2023/05/11 07:16:51;;;;;;;7.57;6.68;;;;;;;;;;10466817;28;20578;-83
2023/05/11 07:21:52;;;;;;;6.80;6.10;;;;;;;;;;10463412;28;20115;-83
2023/05/11 07:26:54;;;;;;;12.50;10.75;;;;;;;;;;10461039;28;20067;-80
2023/05/11 07:31:55;;;;;;;15.88;14.07;;;;;;;;;;10451853;28;20071;-80
2023/05/11 07:36:56;;;;;;;16.42;14.70;;;;;;;;;;10451413;28;20479;-81
2023/05/11 07:41:57;;;;;;;24.42;21.80;;;;;;;;;;10470189;28;20534;-81
2023/05/11 07:46:58;;;;;;;18.70;16.70;;;;;;;;;;10453131;28;20029;-80
2023/05/11 07:51:59;;;;;;;15.95;13.68;;;;;;;;;;10471301;28;20112;-81
2023/05/11 07:57:01;;;;;;;16.60;14.48;;;;;;;;;;10453276;28;20036;-80
2023/05/11 08:02:02;;;;;;;13.10;11.00;;;;;;;;;;10469971;28;20032;-80
2023/05/11 08:07:03;;;;;;;12.70;11.40;;;;;;;;;;10452385;28;20376;-81
2023/05/11 08:12:04;;;;;;;14.35;12.85;;;;;;;;;;10452938;28;20510;-82
2023/05/11 08:17:05;;;;;;;15.20;12.23;;;;;;;;;;10454972;28;20036;-80
2023/05/11 08:22:06;;;;;;;11.98;10.77;;;;;;;;;;10456512;28;20021;-81
2023/05/11 08:27:08;;;;;;;10.05;9.02;;;;;;;;;;10469863;28;20083;-81
2023/05/11 08:32:09;;;;;;;10.68;9.48;;;;;;;;;;10449746;28;20062;-80
2023/05/11 08:37:10;;;;;;;9.57;8.57;;;;;;;;;;10451689;28;20117;-81
2023/05/11 08:42:12;;;;;;;9.93;8.93;;;;;;;;;;10472214;28;20021;-81
2023/05/11 08:47:14;;;;;;;9.00;8.00;;;;;;;;;;10455125;28;20092;-80
2023/05/11 08:52:15;;;;;;;12.27;9.13;;;;;;;;;;10464322;28;20037;-80
2023/05/11 08:57:17;;;;;;;11.48;9.40;;;;;;;;;;10463719;28;20029;-79
2023/05/11 09:02:19;;;;;;;10.52;9.32;;;;;;;;;;10472055;28;20136;-79
2023/05/11 09:07:21;;;;;;;17.48;13.00;;;;;;;;;;10487139;28;20036;-81
2023/05/11 09:12:25;;;;;;;10.95;9.05;;;;;;;;;;10456975;28;20028;-81
2023/05/11 09:17:27;;;;;;;9.68;7.97;;;;;;;;;;10472078;28;20028;-80
2023/05/11 09:22:28;;;;;;;10.65;8.35;;;;;;;;;;10451582;28;20135;-82
2023/05/11 09:27:31;;;;;;;8.10;6.68;;;;;;;;;;10454903;28;20032;-81
2023/05/11 09:32:45;;;;;;;9.05;6.70;;;;;;;;;;10457021;28;20410;-82
2023/05/11 09:38:01;;;;;;;8.20;7.03;;;;;;;;;;10451599;28;20033;-81
2023/05/11 09:43:02;;;;;;;6.95;6.20;;;;;;;;;;10452820;28;20052;-82
2023/05/11 09:48:04;;;;;;;8.20;7.18;;;;;;;;;;10450133;28;20036;-80
2023/05/11 09:53:05;;;;;;;8.52;6.85;;;;;;;;;;10447036;28;20033;-80
2023/05/11 09:58:08;;;;;;;11.90;9.95;;;;;;;;;;10445862;28;20089;-79
2023/05/11 10:03:09;;;;;;;5.95;4.50;;;;;;;;;;10463059;28;20143;-80
2023/05/11 10:08:10;;;;;;;8.50;6.95;;;;;;;;;;10444559;28;20095;-80
2023/05/11 10:13:11;;;;;;;8.20;7.43;;;;;;;;;;10447334;28;20025;-80
2023/05/11 10:18:12;;;;;;;6.95;6.25;;;;;;;;;;10444558;28;20116;-80
2023/05/11 10:23:14;;;;;;;7.35;6.65;;;;;;;;;;10462558;28;20467;-79
2023/05/11 10:28:15;;;;;;;7.38;6.68;;;;;;;;;;10447385;28;20526;-80
2023/05/11 10:33:17;;;;;;;13.65;12.20;;;;;;;;;;10449676;28;20032;-80
2023/05/11 10:38:20;;;;;;;10.18;9.07;;;;;;;;;;10458649;28;20017;-80
2023/05/11 10:43:41;;;;;;;13.02;11.10;;;;;;;;;;10454887;28;20033;-80
2023/05/11 10:48:54;;;;;;;10.35;9.25;;;;;;;;;;10454461;28;20025;-80
2023/05/11 10:53:58;;;;;;;9.18;8.23;;;;;;;;;;10470843;28;20032;-79
2023/05/11 10:59:10;;;;;;;12.25;10.50;;;;;;;;;;10451553;28;20031;-80
2023/05/11 11:04:13;;;;;;;9.23;7.95;;;;;;;;;;10451901;28;20039;-80
2023/05/11 11:09:14;;;;;;;8.65;7.60;;;;;;;;;;10451343;28;20147;-81
2023/05/11 11:14:17;;;;;;;7.95;6.00;;;;;;;;;;10455301;28;20079;-82
2023/05/11 11:19:30;;;;;;;10.52;7.80;;;;;;;;;;10455639;28;20035;-83
2023/05/11 11:24:37;;;;;;;9.63;8.63;;;;;;;;;;10456376;28;20119;-82
2023/05/11 11:29:39;;;;;;;8.90;8.00;;;;;;;;;;10453956;28;20123;-82
2023/05/11 11:34:40;;;;;;;7.25;6.13;;;;;;;;;;10460814;28;20040;-82
2023/05/11 11:39:41;;;;;;;7.10;6.40;;;;;;;;;;10462322;28;20032;-83
2023/05/11 11:44:43;;;;;;;6.88;6.18;;;;;;;;;;10472592;28;20021;-83
2023/05/11 11:50:05;;;;;;;7.00;6.07;;;;;;;;;;10477555;28;20092;-83
2023/05/11 11:55:07;;;;;;;10.35;8.52;;;;;;;;;;10499586;28;20033;-82
2023/05/11 12:00:11;;;;;;;6.50;5.80;;;;;;;;;;10463420;28;20056;-83
2023/05/11 12:05:17;;;;;;;8.57;7.57;;;;;;;;;;10458344;28;20032;-84
2023/05/11 12:10:22;;;;;;;7.97;6.88;;;;;;;;;;10475815;28;20066;-83
2023/05/11 12:15:27;;;;;;;6.70;5.95;;;;;;;;;;10458701;28;20028;-82
2023/05/11 12:20:28;;;;;;;6.55;5.63;;;;;;;;;;10476542;28;20414;-86
2023/05/11 12:25:29;;;;;;;7.80;6.20;;;;;;;;;;10475079;28;20044;-86
2023/05/11 12:30:31;;;;;;;7.85;6.30;;;;;;;;;;10476180;28;20040;-86
2023/05/11 12:35:33;;;;;;;8.57;5.70;;;;;;;;;;10462237;28;20025;-85
2023/05/11 12:40:35;;;;;;;6.75;5.70;;;;;;;;;;10474712;28;20035;-82
2023/05/11 12:45:36;;;;;;;5.85;4.72;;;;;;;;;;10458522;28;20025;-87
2023/05/11 12:50:46;;;;;;;5.75;4.97;;;;;;;;;;10475921;28;20053;-86
2023/05/11 12:55:57;;;;;;;6.05;4.43;;;;;;;;;;10459405;28;20029;-87
2023/05/11 13:00:59;;;;;;;6.63;4.30;;;;;;;;;;10461313;28;20025;-86
2023/05/11 13:06:13;;;;;;;7.22;4.47;;;;;;;;;;10463787;28;20032;-84
2023/05/11 13:11:24;;;;;;;5.47;4.68;;;;;;;;;;10454981;28;20514;-82
2023/05/11 13:16:32;;;;;;;6.93;5.65;;;;;;;;;;10471612;28;20025;-82
2023/05/11 13:21:33;;;;;;;4.85;4.03;;;;;;;;;;10452426;28;20116;-81
2023/05/11 13:26:34;;;;;;;5.47;4.80;;;;;;;;;;10452232;28;20021;-80
2023/05/11 13:31:41;;;;;;;6.25;5.15;;;;;;;;;;10472936;28;20032;-81
2023/05/11 13:36:42;;;;;;;4.95;3.00;;;;;;;;;;10472438;28;20055;-81
2023/05/11 13:41:44;;;;;;;4.25;3.05;;;;;;;;;;10473106;28;20078;-81
2023/05/11 13:46:45;;;;;;;3.70;2.65;;;;;;;;;;10456583;28;20025;-83
2023/05/11 13:51:46;;;;;;;3.30;2.72;;;;;;;;;;10477599;28;20052;-83
2023/05/11 13:56:47;;;;;;;4.72;4.05;;;;;;;;;;10475021;28;20029;-82
2023/05/11 14:01:48;;;;;;;3.92;3.35;;;;;;;;;;10472838;28;20033;-81
2023/05/11 14:06:49;;;;;;;4.43;3.30;;;;;;;;;;10455624;28;20149;-81
2023/05/11 14:11:50;;;;;;;3.40;2.80;;;;;;;;;;10479781;28;20028;-81
2023/05/11 14:16:51;;;;;;;6.65;4.80;;;;;;;;;;10462656;28;20025;-82
2023/05/11 14:21:53;;;;;;;3.88;3.47;;;;;;;;;;10464476;28;20112;-81
2023/05/11 14:26:54;;;;;;;4.38;3.97;;;;;;;;;;10479357;28;20025;-80
2023/05/11 14:31:55;;;;;;;3.67;3.10;;;;;;;;;;10463474;28;20095;-81
2023/05/11 14:36:56;;;;;;;4.90;3.85;;;;;;;;;;10463734;28;20051;-81
2023/05/11 14:41:57;;;;;;;6.28;3.55;;;;;;;;;;10465326;28;20025;-79
2023/05/11 14:46:58;;;;;;;5.85;5.28;;;;;;;;;;10458077;28;20053;-80
2023/05/11 14:51:59;;;;;;;5.95;5.28;;;;;;;;;;10476729;28;20024;-79
2023/05/11 14:57:00;;;;;;;6.55;5.15;;;;;;;;;;10478888;28;20025;-80
2023/05/11 15:02:02;;;;;;;4.25;3.20;;;;;;;;;;10478719;28;20037;-82
2023/05/11 15:07:03;;;;;;;6.85;4.63;;;;;;;;;;10477140;28;20097;-81
2023/05/11 15:12:04;;;;;;;6.55;5.25;;;;;;;;;;10476812;28;20049;-80
2023/05/11 15:17:05;;;;;;;37.63;29.10;;;;;;;;;;10459565;28;20029;-81
2023/05/11 15:22:06;;;;;;;13.40;9.45;;;;;;;;;;10475648;28;20017;-81
2023/05/11 15:27:07;;;;;;;4.90;3.47;;;;;;;;;;10458698;28;20470;-80
2023/05/11 15:32:12;;;;;;;4.57;2.58;;;;;;;;;;10465928;28;20425;-80
2023/05/11 15:37:13;;;;;;;3.85;2.88;;;;;;;;;;10455363;28;20030;-79
2023/05/11 15:42:14;;;;;;;5.95;2.78;;;;;;;;;;10455712;28;20083;-79
2023/05/11 15:47:15;;;;;;;2.83;2.50;;;;;;;;;;10455357;28;20120;-80
2023/05/11 15:52:16;;;;;;;3.72;3.00;;;;;;;;;;10454039;28;20057;-79
2023/05/11 15:57:17;;;;;;;3.22;2.58;;;;;;;;;;10470666;28;20040;-78
2023/05/11 16:02:18;;;;;;;3.30;2.65;;;;;;;;;;10452099;28;20106;-79
2023/05/11 16:07:19;;;;;;;4.47;2.63;;;;;;;;;;10454285;28;20059;-80
2023/05/11 16:12:20;;;;;;;3.10;2.80;;;;;;;;;;10453192;28;20079;-80
2023/05/11 16:17:21;;;;;;;5.18;2.30;;;;;;;;;;10464736;28;20160;-84
2023/05/11 16:22:22;;;;;;;4.10;2.15;;;;;;;;;;10475750;28;20029;-81
2023/05/11 16:27:23;;;;;;;3.72;2.17;;;;;;;;;;10459759;28;20150;-79
2023/05/11 16:32:25;;;;;;;6.10;2.08;;;;;;;;;;10456447;28;20040;-80
2023/05/11 16:37:26;;;;;;;3.83;3.10;;;;;;;;;;10457183;28;20036;-79
2023/05/11 16:42:30;;;;;;;3.00;2.38;;;;;;;;;;10443337;28;20487;-79
2023/05/11 16:47:31;;;;;;;4.80;2.22;;;;;;;;;;10457398;28;20040;-80
2023/05/11 16:52:35;;;;;;;4.40;2.20;;;;;;;;;;10440265;28;20025;-80
2023/05/11 16:57:37;;;;;;;3.38;2.20;;;;;;;;;;10458164;28;20029;-79
2023/05/11 17:02:38;;;;;;;2.28;2.00;;;;;;;;;;10458884;28;20091;-79
2023/05/11 17:07:41;;;;;;;2.47;1.80;;;;;;;;;;10452207;28;20025;-80
2023/05/11 17:12:42;;;;;;;2.92;2.20;;;;;;;;;;10469112;28;20388;-80
2023/05/11 17:17:43;;;;;;;4.18;2.75;;;;;;;;;;10454164;28;20123;-78
2023/05/11 17:22:44;;;;;;;3.53;2.53;;;;;;;;;;10459066;28;20021;-79
2023/05/11 17:27:45;;;;;;;4.07;2.60;;;;;;;;;;10456547;28;20570;-79
2023/05/11 17:32:46;;;;;;;2.30;1.85;;;;;;;;;;10456672;28;20025;-79
2023/05/11 17:37:47;;;;;;;3.72;2.92;;;;;;;;;;10454869;28;20035;-80
2023/05/11 17:42:49;;;;;;;4.45;2.65;;;;;;;;;;10453307;28;20116;-80
2023/05/11 17:47:52;;;;;;;3.63;2.42;;;;;;;;;;10451626;28;20049;-79
2023/05/11 17:52:53;;;;;;;2.75;1.77;;;;;;;;;;10450967;28;20546;-79
2023/05/11 17:57:54;;;;;;;2.85;2.55;;;;;;;;;;10452168;28;20100;-80
2023/05/11 18:03:00;;;;;;;3.38;2.40;;;;;;;;;;10478000;22;20055;-81
2023/05/11 18:08:02;;;;;;;6.07;3.28;;;;;;;;;;10478348;28;20029;-80
2023/05/11 18:13:03;;;;;;;2.75;2.10;;;;;;;;;;10483402;28;20032;-80
2023/05/11 18:18:04;;;;;;;3.40;2.50;;;;;;;;;;10470767;28;20060;-81
2023/05/11 18:23:05;;;;;;;3.15;2.05;;;;;;;;;;10468450;28;20120;-81
2023/05/11 18:28:10;;;;;;;2.00;1.60;;;;;;;;;;10472511;28;20154;-81
2023/05/11 18:33:14;;;;;;;1.67;1.35;;;;;;;;;;10466946;28;20029;-81
2023/05/11 18:38:32;;;;;;;2.40;1.80;;;;;;;;;;10467709;28;20024;-81
2023/05/11 18:43:33;;;;;;;1.75;1.48;;;;;;;;;;10465966;28;20028;-81
2023/05/11 18:48:40;;;;;;;3.20;2.00;;;;;;;;;;10468691;28;20046;-81
2023/05/11 18:53:46;;;;;;;2.40;1.50;;;;;;;;;;10465245;28;20059;-81
2023/05/11 18:58:49;;;;;;;1.80;1.60;;;;;;;;;;10473255;28;20027;-81
2023/05/11 19:03:58;;;;;;;2.33;1.52;;;;;;;;;;10469238;28;20057;-81
2023/05/11 19:09:02;;;;;;;1.98;1.67;;;;;;;;;;10469164;28;20028;-81
2023/05/11 19:14:06;;;;;;;3.33;1.58;;;;;;;;;;10470332;28;20033;-81
